Time;durP1;ratioP1;P1;durP2;ratioP2;P2;SDS_P1;SDS_P2;PMS_P1;PMS_P2;Temp;Humidity;BMP_temperature;BMP_pressure;BME280_temperature;BME280_humidity;BME280_pressure;Samples;Min_cycle;Max_cycle;Signal;HPM_P1;HPM_P2
2022/05/27 00:02:18;;;;;;;;;;;;;;;;;;5118952;28;19916;-84
2022/05/27 00:04:43;;;;;;;;;;;;;;;;;;5117595;28;19915;-82
2022/05/27 00:07:08;;;;;;;;;;;;;;;;;;5119013;28;19915;-84
2022/05/27 00:09:34;;;;;;;;;;;;;;;;;;5119168;28;20038;-84
2022/05/27 00:12:00;;;;;;;;;;;;;;;;;;5118955;28;20337;-84
2022/05/27 00:14:25;;;;;;;;;;;;;;;;;;5130892;28;19922;-83
2022/05/27 00:16:50;;;;;;;;;;;;;;;;;;5136581;28;19900;-83
2022/05/27 00:19:16;;;;;;;;;;;;;;;;;;5138485;27;19908;-84
2022/05/27 00:21:41;;;;;;;;;;;;;;;;;;5115826;28;19927;-82
2022/05/27 00:24:06;;;;;;;;;;;;;;;;;;5133495;28;20257;-84
2022/05/27 00:26:32;;;;;;;;;;;;;;;;;;5134135;28;19915;-84
2022/05/27 00:28:57;;;;;;;;;;;;;;;;;;5126527;28;19916;-84
2022/05/27 00:31:23;;;;;;;;;;;;;;;;;;5117091;28;19922;-83
2022/05/27 00:33:48;;;;;;;;;;;;;;;;;;5118335;28;19916;-83
2022/05/27 00:36:14;;;;;;;;;;;;;;;;;;5118163;28;19972;-84
2022/05/27 00:38:39;;;;;;;;;;;;;;;;;;5118121;28;19919;-84
2022/05/27 00:41:05;;;;;;;;;;;;;;;;;;5116874;28;19916;-84
2022/05/27 00:43:30;;;;;;;;;;;;;;;;;;5116575;28;19916;-83
2022/05/27 00:46:03;;;;;;;;;;;;;;;;;;5118191;28;20252;-83
2022/05/27 00:48:28;;;;;;;;;;;;;;;;;;5117988;28;19916;-83
2022/05/27 00:50:53;;;;;;;;;;;;;;;;;;5099547;28;19999;-83
2022/05/27 00:53:23;;;;;;;;;;;;;;;;;;5117555;28;20268;-83
2022/05/27 00:55:50;;;;;;;;;;;;;;;;;;5116350;28;19912;-83
2022/05/27 00:58:17;;;;;;;;;;;;;;;;;;5116374;28;20244;-84
2022/05/27 01:00:42;;;;;;;;;;;;;;;;;;5116776;28;19916;-83
2022/05/27 01:03:07;;;;;;;;;;;;;;;;;;5117663;28;20015;-84
2022/05/27 01:05:33;;;;;;;;;;;;;;;;;;5115668;28;20021;-84
2022/05/27 01:08:00;;;;;;;;;;;;;;;;;;5116420;28;19919;-83
2022/05/27 01:10:25;;;;;;;;;;;;;;;;;;5116000;28;20356;-84
2022/05/27 01:12:55;;;;;;;;;;;;;;;;;;5116076;28;19916;-84
2022/05/27 01:15:24;;;;;;;;;;;;;;;;;;5115956;28;19919;-83
2022/05/27 01:18:08;;;;;;;;;;;;;;;;;;5117375;27;19916;-85
2022/05/27 01:20:46;;;;;;;;;;;;;;;;;;5117317;28;19912;-83
2022/05/27 01:23:17;;;;;;;;;;;;;;;;;;5115720;28;19920;-85
2022/05/27 01:25:43;;;;;;;;;;;;;;;;;;5116939;28;19972;-84
2022/05/27 01:28:12;;;;;;;;;;;;;;;;;;5116554;28;20361;-84
2022/05/27 01:30:44;;;;;;;;;;;;;;;;;;5116901;28;19916;-83
2022/05/27 01:33:23;;;;;;;;;;;;;;;;;;5098428;28;19973;-83
2022/05/27 01:36:11;;;;;;;;;;;;;;;;;;5115528;28;19962;-83
2022/05/27 01:38:57;;;;;;;;;;;;;;;;;;5116056;28;20329;-84
2022/05/27 01:41:27;;;;;;;;;;;;;;;;;;5115937;28;19915;-83
2022/05/27 01:44:05;;;;;;;;;;;;;;;;;;5116497;28;19916;-83
2022/05/27 01:46:36;;;;;;;;;;;;;;;;;;5115416;28;19920;-83
2022/05/27 01:49:01;;;;;;;;;;;;;;;;;;5115596;28;20533;-84
2022/05/27 01:51:28;;;;;;;;;;;;;;;;;;5116675;28;20377;-84
2022/05/27 01:54:22;;;;;;;;;;;;;;;;;;5115127;28;20337;-83
2022/05/27 01:56:48;;;;;;;;;;;;;;;;;;5115754;28;19916;-84
2022/05/27 01:59:14;;;;;;;;;;;;;;;;;;5116608;28;19939;-83
2022/05/27 02:01:41;;;;;;;;;;;;;;;;;;5115395;28;20000;-84
2022/05/27 02:04:08;;;;;;;;;;;;;;;;;;5098121;28;19923;-84
2022/05/27 02:06:39;;;;;;;;;;;;;;;;;;5115289;28;19916;-84
2022/05/27 02:09:18;;;;;;;;;;;;;;;;;;5114984;28;19923;-84
2022/05/27 02:11:44;;;;;;;;;;;;;;;;;;5097679;28;19982;-83
2022/05/27 02:14:14;;;;;;;;;;;;;;;;;;5115063;28;19959;-83
2022/05/27 02:16:40;;;;;;;;;;;;;;;;;;5115312;28;20324;-83
2022/05/27 02:19:10;;;;;;;;;;;;;;;;;;5114750;28;20002;-83
2022/05/27 02:21:40;;;;;;;;;;;;;;;;;;5114941;28;20014;-83
2022/05/27 02:24:07;;;;;;;;;;;;;;;;;;5116063;28;20015;-83
2022/05/27 02:26:34;;;;;;;;;;;;;;;;;;5121013;28;19976;-83
2022/05/27 02:29:00;;;;;;;;;;;;;;;;;;5120644;28;19915;-84
2022/05/27 02:31:29;;;;;;;;;;;;;;;;;;5121028;28;19915;-83
2022/05/27 02:36:41;;;;;;;;;;;;;;;;;;5120936;28;19958;-85
2022/05/27 02:39:07;;;;;;;;;;;;;;;;;;5116239;28;19915;-82
2022/05/27 02:41:37;;;;;;;;;;;;;;;;;;5117496;28;19923;-83
2022/05/27 02:44:22;;;;;;;;;;;;;;;;;;5116042;28;20247;-83
2022/05/27 02:46:49;;;;;;;;;;;;;;;;;;5116651;28;19920;-84
2022/05/27 02:49:21;;;;;;;;;;;;;;;;;;5114500;28;19927;-84
2022/05/27 02:51:55;;;;;;;;;;;;;;;;;;5115319;28;19919;-85
2022/05/27 02:54:31;;;;;;;;;;;;;;;;;;5114143;28;19919;-84
2022/05/27 02:57:00;;;;;;;;;;;;;;;;;;5114127;28;19916;-84
2022/05/27 02:59:25;;;;;;;;;;;;;;;;;;5115639;28;19923;-85
2022/05/27 03:01:50;;;;;;;;;;;;;;;;;;5114360;28;19916;-83
2022/05/27 03:04:16;;;;;;;;;;;;;;;;;;5115204;28;20329;-83
2022/05/27 03:06:47;;;;;;;;;;;;;;;;;;5114013;28;19916;-83
2022/05/27 03:09:16;;;;;;;;;;;;;;;;;;5115458;28;20443;-83
2022/05/27 03:11:45;;;;;;;;;;;;;;;;;;5114245;28;19920;-83
2022/05/27 03:14:13;;;;;;;;;;;;;;;;;;5114195;28;20313;-84
2022/05/27 03:16:43;;;;;;;;;;;;;;;;;;5113950;28;19915;-84
2022/05/27 03:19:16;;;;;;;;;;;;;;;;;;5114126;28;19951;-83
2022/05/27 03:21:52;;;;;;;;;;;;;;;;;;5114542;28;19928;-83
2022/05/27 03:24:38;;;;;;;;;;;;;;;;;;5117419;28;19916;-83
2022/05/27 03:27:10;;;;;;;;;;;;;;;;;;5115630;28;19923;-82
2022/05/27 03:29:44;;;;;;;;;;;;;;;;;;5117936;28;20333;-84
2022/05/27 03:32:12;;;;;;;;;;;;;;;;;;5117942;28;19969;-84
2022/05/27 03:34:49;;;;;;;;;;;;;;;;;;5119371;28;19920;-83
2022/05/27 03:37:25;;;;;;;;;;;;;;;;;;5117931;28;19911;-83
2022/05/27 03:40:03;;;;;;;;;;;;;;;;;;5118091;28;19947;-83
2022/05/27 03:42:28;;;;;;;;;;;;;;;;;;5119168;28;19920;-85
2022/05/27 03:44:58;;;;;;;;;;;;;;;;;;5118283;28;20397;-83
2022/05/27 03:47:23;;;;;;;;;;;;;;;;;;5117443;28;20303;-83
2022/05/27 03:49:48;;;;;;;;;;;;;;;;;;5119185;28;19919;-83
2022/05/27 03:52:14;;;;;;;;;;;;;;;;;;5117826;28;19915;-84
2022/05/27 03:54:40;;;;;;;;;;;;;;;;;;5117940;28;19939;-83
2022/05/27 03:57:05;;;;;;;;;;;;;;;;;;5118996;28;20359;-84
2022/05/27 03:59:30;;;;;;;;;;;;;;;;;;5118867;27;20043;-82
2022/05/27 04:01:56;;;;;;;;;;;;;;;;;;5118480;28;19963;-83
2022/05/27 04:04:22;;;;;;;;;;;;;;;;;;5118466;28;19958;-83
2022/05/27 04:06:47;;;;;;;;;;;;;;;;;;5118641;28;19962;-82
2022/05/27 04:09:13;;;;;;;;;;;;;;;;;;5100263;28;19915;-82
2022/05/27 04:11:39;;;;;;;;;;;;;;;;;;5118335;28;20372;-80
2022/05/27 04:14:04;;;;;;;;;;;;;;;;;;5118929;28;20340;-82
2022/05/27 04:16:29;;;;;;;;;;;;;;;;;;5118940;28;19920;-80
2022/05/27 04:18:55;;;;;;;;;;;;;;;;;;5120020;28;19949;-82
2022/05/27 04:21:21;;;;;;;;;;;;;;;;;;5118819;28;19916;-82
2022/05/27 04:23:46;;;;;;;;;;;;;;;;;;5118656;28;19916;-82
2022/05/27 04:26:11;;;;;;;;;;;;;;;;;;5118085;28;19919;-82
2022/05/27 04:28:37;;;;;;;;;;;;;;;;;;5118264;28;19924;-82
2022/05/27 04:31:03;;;;;;;;;;;;;;;;;;5116906;28;19958;-83
2022/05/27 04:33:28;;;;;;;;;;;;;;;;;;5118364;28;19951;-82
2022/05/27 04:35:57;;;;;;;;;;;;;;;;;;5105443;28;19955;-82
2022/05/27 04:38:22;;;;;;;;;;;;;;;;;;5094476;28;19920;-83
2022/05/27 04:40:48;;;;;;;;;;;;;;;;;;5095201;28;19916;-81
2022/05/27 04:43:14;;;;;;;;;;;;;;;;;;5098998;28;19916;-79
2022/05/27 04:45:40;;;;;;;;;;;;;;;;;;5098171;28;19920;-81
2022/05/27 04:48:05;;;;;;;;;;;;;;;;;;5097588;28;20007;-82
2022/05/27 04:50:31;;;;;;;;;;;;;;;;;;5116268;28;19978;-82
2022/05/27 04:52:56;;;;;;;;;;;;;;;;;;5118389;28;19940;-82
2022/05/27 04:55:22;;;;;;;;;;;;;;;;;;5115580;28;19973;-80
2022/05/27 04:57:52;;;;;;;;;;;;;;;;;;5119986;28;19911;-84
2022/05/27 05:00:18;;;;;;;;;;;;;;;;;;5118676;28;20308;-83
2022/05/27 05:02:44;;;;;;;;;;;;;;;;;;5079007;28;19923;-81
2022/05/27 05:05:10;;;;;;;;;;;;;;;;;;5117139;28;19987;-82
2022/05/27 05:07:36;;;;;;;;;;;;;;;;;;5117553;28;20252;-81
2022/05/27 05:10:01;;;;;;;;;;;;;;;;;;5101075;28;19912;-80
2022/05/27 05:12:26;;;;;;;;;;;;;;;;;;5111015;28;20014;-81
2022/05/27 05:14:52;;;;;;;;;;;;;;;;;;5114503;28;19916;-80
2022/05/27 05:17:18;;;;;;;;;;;;;;;;;;5115293;28;19916;-81
2022/05/27 05:19:44;;;;;;;;;;;;;;;;;;5114156;28;19980;-80
2022/05/27 05:22:10;;;;;;;;;;;;;;;;;;5114494;28;20066;-81
2022/05/27 05:24:35;;;;;;;;;;;;;;;;;;5113835;28;19939;-81
2022/05/27 05:27:00;;;;;;;;;;;;;;;;;;5113976;28;19922;-81
2022/05/27 05:29:26;;;;;;;;;;;;;;;;;;5114424;28;19916;-81
2022/05/27 05:31:51;;;;;;;;;;;;;;;;;;5115547;28;19916;-81
2022/05/27 05:34:16;;;;;;;;;;;;;;;;;;5115548;28;19915;-80
2022/05/27 05:36:43;;;;;;;;;;;;;;;;;;5116404;28;19916;-81
2022/05/27 05:39:08;;;;;;;;;;;;;;;;;;5117030;28;20194;-79
2022/05/27 05:41:34;;;;;;;;;;;;;;;;;;5118190;28;19965;-79
2022/05/27 05:44:00;;;;;;;;;;;;;;;;;;5118340;28;19916;-80
2022/05/27 05:46:26;;;;;;;;;;;;;;;;;;5115672;28;20014;-85
2022/05/27 05:48:51;;;;;;;;;;;;;;;;;;5115237;28;19916;-80
2022/05/27 05:51:16;;;;;;;;;;;;;;;;;;5114780;28;20401;-80
2022/05/27 05:53:44;;;;;;;;;;;;;;;;;;5115099;28;21566;-81
2022/05/27 05:56:09;;;;;;;;;;;;;;;;;;5115354;28;19999;-81
2022/05/27 05:58:37;;;;;;;;;;;;;;;;;;5103899;28;19942;-79
2022/05/27 06:01:03;;;;;;;;;;;;;;;;;;5093563;28;19922;-80
2022/05/27 06:03:28;;;;;;;;;;;;;;;;;;5093224;28;19998;-79
2022/05/27 06:05:54;;;;;;;;;;;;;;;;;;5092792;28;19916;-79
2022/05/27 06:08:19;;;;;;;;;;;;;;;;;;5092976;28;19912;-79
2022/05/27 06:10:45;;;;;;;;;;;;;;;;;;5091572;28;19965;-80
2022/05/27 06:13:10;;;;;;;;;;;;;;;;;;5090925;28;19912;-79
2022/05/27 06:15:36;;;;;;;;;;;;;;;;;;5090611;28;20325;-78
2022/05/27 06:18:01;;;;;;;;;;;;;;;;;;5108808;28;20390;-79
2022/05/27 06:20:26;;;;;;;;;;;;;;;;;;5112703;27;19954;-79
2022/05/27 06:22:52;;;;;;;;;;;;;;;;;;5112132;28;19916;-79
2022/05/27 06:25:17;;;;;;;;;;;;;;;;;;5114041;28;20113;-79
2022/05/27 06:27:43;;;;;;;;;;;;;;;;;;5113718;28;20014;-80
2022/05/27 06:35:23;;;;;;;;;;;;;;;;;;5115150;28;19916;-82
2022/05/27 06:37:49;;;;;;;;;;;;;;;;;;5115521;28;19912;-81
2022/05/27 06:40:15;;;;;;;;;;;;;;;;;;5114836;28;19916;-81
2022/05/27 06:42:40;;;;;;;;;;;;;;;;;;5116415;28;19976;-80
2022/05/27 06:45:09;;;;;;;;;;;;;;;;;;5114148;28;20256;-81
2022/05/27 06:47:35;;;;;;;;;;;;;;;;;;5099234;28;19920;-82
2022/05/27 06:50:04;;;;;;;;;;;;;;;;;;5118142;28;20035;-79
2022/05/27 06:52:30;;;;;;;;;;;;;;;;;;5097640;28;20262;-80
2022/05/27 06:54:55;;;;;;;;;;;;;;;;;;5094019;28;19916;-82
2022/05/27 06:57:21;;;;;;;;;;;;;;;;;;5102060;28;19924;-80
2022/05/27 06:59:46;;;;;;;;;;;;;;;;;;5122702;28;19944;-82
2022/05/27 07:02:12;;;;;;;;;;;;;;;;;;5116366;28;20311;-79
2022/05/27 07:04:37;;;;;;;;;;;;;;;;;;5117744;28;19916;-80
2022/05/27 07:07:04;;;;;;;;;;;;;;;;;;5116971;28;20040;-76
2022/05/27 07:09:31;;;;;;;;;;;;;;;;;;5115925;28;19916;-81
2022/05/27 07:11:57;;;;;;;;;;;;;;;;;;5112262;28;19937;-82
2022/05/27 07:14:22;;;;;;;;;;;;;;;;;;5113596;28;19916;-78
2022/05/27 07:16:48;;;;;;;;;;;;;;;;;;5112908;28;20269;-81
2022/05/27 07:19:17;;;;;;;;;;;;;;;;;;5116768;28;20345;-81
2022/05/27 07:21:43;;;;;;;;;;;;;;;;;;5111947;28;19916;-79
2022/05/27 07:24:10;;;;;;;;;;;;;;;;;;5114169;28;20244;-83
2022/05/27 07:26:35;;;;;;;;;;;;;;;;;;5115449;28;19919;-78
2022/05/27 07:29:01;;;;;;;;;;;;;;;;;;5115197;28;20271;-80
2022/05/27 07:31:27;;;;;;;;;;;;;;;;;;5114163;28;19924;-78
2022/05/27 07:33:52;;;;;;;;;;;;;;;;;;5110933;28;19912;-79
2022/05/27 07:36:19;;;;;;;;;;;;;;;;;;5113069;28;19977;-79
2022/05/27 07:38:44;;;;;;;;;;;;;;;;;;5105366;28;20015;-78
2022/05/27 07:41:09;;;;;;;;;;;;;;;;;;5110728;28;19955;-79
2022/05/27 07:43:35;;;;;;;;;;;;;;;;;;5114748;28;19923;-80
2022/05/27 07:46:00;;;;;;;;;;;;;;;;;;5111850;28;19920;-79
2022/05/27 07:48:26;;;;;;;;;;;;;;;;;;5109553;28;19920;-79
2022/05/27 07:50:51;;;;;;;;;;;;;;;;;;5111308;28;19970;-79
2022/05/27 07:53:18;;;;;;;;;;;;;;;;;;5109502;28;20357;-81
2022/05/27 07:56:00;;;;;;;;;;;;;;;;;;5115109;28;19942;-80
2022/05/27 07:58:26;;;;;;;;;;;;;;;;;;5112550;28;20302;-80
2022/05/27 08:00:55;;;;;;;;;;;;;;;;;;5115699;28;20648;-80
2022/05/27 08:03:23;;;;;;;;;;;;;;;;;;5102217;28;19920;-81
2022/05/27 08:05:50;;;;;;;;;;;;;;;;;;5092915;28;19932;-82
2022/05/27 08:08:16;;;;;;;;;;;;;;;;;;5108347;28;20143;-79
2022/05/27 08:10:41;;;;;;;;;;;;;;;;;;5109162;28;20006;-77
2022/05/27 08:13:06;;;;;;;;;;;;;;;;;;5112536;28;20348;-81
2022/05/27 08:15:32;;;;;;;;;;;;;;;;;;5117538;28;19916;-80
2022/05/27 08:17:57;;;;;;;;;;;;;;;;;;5117959;28;19916;-80
2022/05/27 08:20:24;;;;;;;;;;;;;;;;;;5115274;28;20314;-80
2022/05/27 08:22:49;;;;;;;;;;;;;;;;;;5116811;28;19916;-80
2022/05/27 08:25:14;;;;;;;;;;;;;;;;;;5115712;28;19922;-80
2022/05/27 08:27:40;;;;;;;;;;;;;;;;;;5118692;28;19963;-81
2022/05/27 08:30:06;;;;;;;;;;;;;;;;;;5101248;28;20360;-80
2022/05/27 08:32:32;;;;;;;;;;;;;;;;;;5118571;28;19916;-79
2022/05/27 08:40:32;;;;;;;;;;;;;;;;;;5121755;28;19950;-82
2022/05/27 08:43:03;;;;;;;;;;;;;;;;;;5118596;28;19916;-78
2022/05/27 08:45:46;;;;;;;;;;;;;;;;;;5115858;28;19932;-80
2022/05/27 08:48:11;;;;;;;;;;;;;;;;;;5116280;28;19919;-80
2022/05/27 08:50:40;;;;;;;;;;;;;;;;;;5119136;28;19967;-78
2022/05/27 08:53:13;;;;;;;;;;;;;;;;;;5113471;28;20022;-81
2022/05/27 09:01:22;;;;;;;;;;;;;;;;;;5097615;28;19958;-83
2022/05/27 09:04:06;;;;;;;;;;;;;;;;;;5092415;28;19947;-83
2022/05/27 09:06:36;;;;;;;;;;;;;;;;;;5113622;28;19916;-83
2022/05/27 09:09:01;;;;;;;;;;;;;;;;;;5113809;28;19942;-78
2022/05/27 09:11:34;;;;;;;;;;;;;;;;;;5115041;28;19915;-81
2022/05/27 09:14:07;;;;;;;;;;;;;;;;;;5113495;28;19915;-82
2022/05/27 09:16:44;;;;;;;;;;;;;;;;;;5114369;28;19916;-86
2022/05/27 09:19:23;;;;;;;;;;;;;;;;;;5115639;28;20353;-79
2022/05/27 09:21:48;;;;;;;;;;;;;;;;;;5095883;28;19973;-80
2022/05/27 09:24:13;;;;;;;;;;;;;;;;;;5114252;28;20266;-80
2022/05/27 09:27:00;;;;;;;;;;;;;;;;;;5111725;28;19973;-80
2022/05/27 09:29:25;;;;;;;;;;;;;;;;;;5114354;28;20352;-81
2022/05/27 09:32:13;;;;;;;;;;;;;;;;;;5112590;28;19920;-79
2022/05/27 09:34:38;;;;;;;;;;;;;;;;;;5109913;28;19920;-77
2022/05/27 09:37:04;;;;;;;;;;;;;;;;;;5113326;28;19920;-80
2022/05/27 09:39:30;;;;;;;;;;;;;;;;;;5111031;28;19920;-79
2022/05/27 09:42:08;;;;;;;;;;;;;;;;;;5114520;28;20245;-81
2022/05/27 09:44:48;;;;;;;;;;;;;;;;;;5113989;28;19927;-78
2022/05/27 09:47:13;;;;;;;;;;;;;;;;;;5119345;28;19924;-81
2022/05/27 09:49:49;;;;;;;;;;;;;;;;;;;;;
2022/05/27 09:52:18;;;;;;;;;;;;;;;;;;5118170;28;19926;-79
2022/05/27 09:54:44;;;;;;;;;;;;;;;;;;5101696;28;19935;-77
2022/05/27 09:57:16;;;;;;;;;;;;;;;;;;5090918;28;19923;-79
2022/05/27 09:59:41;;;;;;;;;;;;;;;;;;5094290;28;20315;-77
2022/05/27 10:02:14;;;;;;;;;;;;;;;;;;5093716;28;20007;-80
2022/05/27 10:04:55;;;;;;;;;;;;;;;;;;5093473;28;20005;-78
2022/05/27 10:07:34;;;;;;;;;;;;;;;;;;5091205;28;19915;-78
2022/05/27 10:10:24;;;;;;;;;;;;;;;;;;5094550;28;19924;-77
2022/05/27 10:12:50;;;;;;;;;;;;;;;;;;5090419;28;20002;-79
2022/05/27 10:15:29;;;;;;;;;;;;;;;;;;5093214;28;20018;-78
2022/05/27 10:17:54;;;;;;;;;;;;;;;;;;5095051;28;19936;-78
2022/05/27 10:20:22;;;;;;;;;;;;;;;;;;5094934;28;20387;-78
2022/05/27 10:22:58;;;;;;;;;;;;;;;;;;5094861;28;19927;-79
2022/05/27 10:25:31;;;;;;;;;;;;;;;;;;5094631;28;19916;-78
2022/05/27 10:27:56;;;;;;;;;;;;;;;;;;5109975;28;19911;-81
2022/05/27 10:30:23;;;;;;;;;;;;;;;;;;5114555;28;20019;-80
2022/05/27 10:32:48;;;;;;;;;;;;;;;;;;5115794;28;19918;-79
2022/05/27 10:35:26;;;;;;;;;;;;;;;;;;5096253;28;19979;-78
2022/05/27 10:38:14;;;;;;;;;;;;;;;;;;5118524;28;19919;-79
2022/05/27 10:40:43;;;;;;;;;;;;;;;;;;5113878;28;19930;-79
2022/05/27 10:43:08;;;;;;;;;;;;;;;;;;5113239;27;20026;-80
2022/05/27 10:45:42;;;;;;;;;;;;;;;;;;5111507;28;20006;-78
2022/05/27 10:48:07;;;;;;;;;;;;;;;;;;5113797;28;19916;-77
2022/05/27 10:50:36;;;;;;;;;;;;;;;;;;5114135;28;19923;-79
2022/05/27 10:53:17;;;;;;;;;;;;;;;;;;5113318;28;19920;-79
2022/05/27 10:55:42;;;;;;;;;;;;;;;;;;5114947;28;19916;-78
2022/05/27 11:03:50;;;;;;;;;;;;;;;;;;5113146;28;20314;-78
2022/05/27 11:06:15;;;;;;;;;;;;;;;;;;5115472;28;19916;-79
2022/05/27 11:08:58;;;;;;;;;;;;;;;;;;5112899;28;20329;-80
2022/05/27 11:11:35;;;;;;;;;;;;;;;;;;5114731;28;20309;-79
2022/05/27 11:17:16;;;;;;;;;;;;;;;;;;5114760;28;19966;-79
2022/05/27 11:19:41;;;;;;;;;;;;;;;;;;5114653;28;19916;-80
2022/05/27 11:22:12;;;;;;;;;;;;;;;;;;5114703;28;19916;-78
2022/05/27 11:24:40;;;;;;;;;;;;;;;;;;5114819;28;19958;-79
2022/05/27 11:27:14;;;;;;;;;;;;;;;;;;5113569;28;19916;-80
2022/05/27 11:29:52;;;;;;;;;;;;;;;;;;5113562;28;19920;-79
2022/05/27 11:32:25;;;;;;;;;;;;;;;;;;5115873;28;19920;-79
2022/05/27 11:35:09;;;;;;;;;;;;;;;;;;5115352;28;19916;-81
2022/05/27 11:37:44;;;;;;;;;;;;;;;;;;5114468;28;19916;-80
2022/05/27 11:40:10;;;;;;;;;;;;;;;;;;5115455;28;19955;-78
2022/05/27 11:42:55;;;;;;;;;;;;;;;;;;5115141;28;19963;-80
2022/05/27 11:45:21;;;;;;;;;;;;;;;;;;5114682;28;19923;-79
2022/05/27 11:47:46;;;;;;;;;;;;;;;;;;5113733;28;20345;-79
2022/05/27 11:50:20;;;;;;;;;;;;;;;;;;5118828;28;19919;-80
2022/05/27 11:53:05;;;;;;;;;;;;;;;;;;5118634;28;19916;-79
2022/05/27 11:55:34;;;;;;;;;;;;;;;;;;5113814;28;19916;-79
2022/05/27 11:58:18;;;;;;;;;;;;;;;;;;5118575;28;19923;-79
2022/05/27 12:00:59;;;;;;;;;;;;;;;;;;5118392;28;19946;-78
2022/05/27 12:03:36;;;;;;;;;;;;;;;;;;5118299;28;20253;-79
2022/05/27 12:06:09;;;;;;;;;;;;;;;;;;5118377;28;19920;-80
2022/05/27 12:08:37;;;;;;;;;;;;;;;;;;5117814;28;20010;-78
2022/05/27 12:11:22;;;;;;;;;;;;;;;;;;5118626;28;20025;-80
2022/05/27 12:13:49;;;;;;;;;;;;;;;;;;5117669;28;19922;-80
2022/05/27 12:16:19;;;;;;;;;;;;;;;;;;5117074;28;19978;-80
2022/05/27 12:18:46;;;;;;;;;;;;;;;;;;5118257;28;19965;-80
2022/05/27 12:21:13;;;;;;;;;;;;;;;;;;5116789;28;19916;-80
2022/05/27 12:23:40;;;;;;;;;;;;;;;;;;5117089;28;19951;-78
2022/05/27 12:26:05;;;;;;;;;;;;;;;;;;5100449;28;20010;-78
2022/05/27 12:28:31;;;;;;;;;;;;;;;;;;5116906;28;20660;-78
2022/05/27 12:30:57;;;;;;;;;;;;;;;;;;5116599;28;19991;-79
2022/05/27 12:33:23;;;;;;;;;;;;;;;;;;5116770;28;19938;-77
2022/05/27 12:35:48;;;;;;;;;;;;;;;;;;5116085;28;20353;-78
2022/05/27 12:38:15;;;;;;;;;;;;;;;;;;5117688;28;19923;-81
2022/05/27 12:40:50;;;;;;;;;;;;;;;;;;5117812;28;19922;-78
2022/05/27 12:43:16;;;;;;;;;;;;;;;;;;5116937;28;19940;-78
2022/05/27 12:45:45;;;;;;;;;;;;;;;;;;5120536;28;19951;-81
2022/05/27 12:48:12;;;;;;;;;;;;;;;;;;5104047;28;19919;-84
2022/05/27 12:50:38;;;;;;;;;;;;;;;;;;5106103;28;19961;-80
2022/05/27 12:53:14;;;;;;;;;;;;;;;;;;5120490;28;19916;-82
2022/05/27 13:01:20;;;;;;;;;;;;;;;;;;5117450;28;19922;-82
2022/05/27 13:03:48;;;;;;;;;;;;;;;;;;5118978;28;19923;-83
2022/05/27 13:06:25;;;;;;;;;;;;;;;;;;5118746;28;19915;-86
2022/05/27 13:08:50;;;;;;;;;;;;;;;;;;5117923;28;20007;-83
2022/05/27 13:11:16;;;;;;;;;;;;;;;;;;5116940;28;19994;-83
2022/05/27 13:13:42;;;;;;;;;;;;;;;;;;5115848;28;20285;-83
2022/05/27 13:16:08;;;;;;;;;;;;;;;;;;5116768;28;20298;-84
2022/05/27 13:18:38;;;;;;;;;;;;;;;;;;5116031;28;20340;-85
2022/05/27 13:21:22;;;;;;;;;;;;;;;;;;5117163;28;20026;-81
2022/05/27 13:23:51;;;;;;;;;;;;;;;;;;5118363;28;19916;-83
2022/05/27 13:26:37;;;;;;;;;;;;;;;;;;5122936;28;19973;-82
2022/05/27 13:29:12;;;;;;;;;;;;;;;;;;5118058;28;19943;-86
2022/05/27 13:31:41;;;;;;;;;;;;;;;;;;5122316;28;19922;-82
2022/05/27 13:34:07;;;;;;;;;;;;;;;;;;5119912;28;19923;-82
2022/05/27 13:36:50;;;;;;;;;;;;;;;;;;5115596;28;19916;-81
2022/05/27 13:39:15;;;;;;;;;;;;;;;;;;5115761;28;19916;-82
2022/05/27 13:41:41;;;;;;;;;;;;;;;;;;5118701;28;19965;-85
2022/05/27 13:44:09;;;;;;;;;;;;;;;;;;5116133;28;19951;-84
2022/05/27 13:46:36;;;;;;;;;;;;;;;;;;5115095;28;19923;-82
2022/05/27 13:49:05;;;;;;;;;;;;;;;;;;5115562;28;19941;-85
2022/05/27 13:51:30;;;;;;;;;;;;;;;;;;5115810;28;19916;-83
2022/05/27 13:53:55;;;;;;;;;;;;;;;;;;5115734;28;20303;-85
2022/05/27 13:56:21;;;;;;;;;;;;;;;;;;5116073;28;19916;-86
2022/05/27 13:58:48;;;;;;;;;;;;;;;;;;5117584;28;19923;-83
2022/05/27 14:01:13;;;;;;;;;;;;;;;;;;5116162;28;19920;-84
2022/05/27 14:03:40;;;;;;;;;;;;;;;;;;5118442;28;19915;-86
2022/05/27 14:06:21;;;;;;;;;;;;;;;;;;5116189;28;19951;-82
2022/05/27 14:08:47;;;;;;;;;;;;;;;;;;5116718;28;19965;-87
2022/05/27 14:11:19;;;;;;;;;;;;;;;;;;5116756;28;19916;-86
2022/05/27 14:13:54;;;;;;;;;;;;;;;;;;5119760;28;19916;-85
2022/05/27 14:16:30;;;;;;;;;;;;;;;;;;5121301;28;20309;-82
2022/05/27 14:18:57;;;;;;;;;;;;;;;;;;5121243;28;19916;-85
2022/05/27 14:24:14;;;;;;;;;;;;;;;;;;5126730;28;19964;-87
2022/05/27 14:26:39;;;;;;;;;;;;;;;;;;5119353;28;19916;-84
2022/05/27 14:29:07;;;;;;;;;;;;;;;;;;5118440;28;19922;-86
2022/05/27 14:31:36;;;;;;;;;;;;;;;;;;5114753;28;19916;-83
2022/05/27 14:34:02;;;;;;;;;;;;;;;;;;5116078;28;19920;-85
2022/05/27 14:36:29;;;;;;;;;;;;;;;;;;5115029;28;19922;-86
2022/05/27 14:38:55;;;;;;;;;;;;;;;;;;5114757;28;19915;-86
2022/05/27 14:41:24;;;;;;;;;;;;;;;;;;5114595;28;19958;-86
2022/05/27 14:43:51;;;;;;;;;;;;;;;;;;5114645;28;19922;-86
2022/05/27 14:46:17;;;;;;;;;;;;;;;;;;5114380;28;19951;-86
2022/05/27 14:48:43;;;;;;;;;;;;;;;;;;5114951;28;20330;-86
2022/05/27 14:51:22;;;;;;;;;;;;;;;;;;5125625;28;19946;-87
2022/05/27 14:53:48;;;;;;;;;;;;;;;;;;5116530;28;20284;-83
2022/05/27 14:56:17;;;;;;;;;;;;;;;;;;5115241;28;19912;-86
2022/05/27 14:58:43;;;;;;;;;;;;;;;;;;5115480;28;19916;-87
2022/05/27 15:01:11;;;;;;;;;;;;;;;;;;5115113;28;19912;-83
2022/05/27 15:03:39;;;;;;;;;;;;;;;;;;5125878;28;19916;-83
2022/05/27 15:06:14;;;;;;;;;;;;;;;;;;5123198;28;19923;-84
2022/05/27 15:08:40;;;;;;;;;;;;;;;;;;5123226;28;19911;-83
2022/05/27 15:11:12;;;;;;;;;;;;;;;;;;5125523;28;19966;-87
2022/05/27 15:13:54;;;;;;;;;;;;;;;;;;5115752;28;20309;-84
2022/05/27 15:16:22;;;;;;;;;;;;;;;;;;5114289;28;19966;-85
2022/05/27 15:18:51;;;;;;;;;;;;;;;;;;5115758;28;19919;-86
2022/05/27 15:21:18;;;;;;;;;;;;;;;;;;5115413;28;20310;-86
2022/05/27 15:23:50;;;;;;;;;;;;;;;;;;5116292;28;19945;-87
2022/05/27 15:34:32;;;;;;;;;;;;;;;;;;5119559;28;20344;-86
2022/05/27 15:36:57;;;;;;;;;;;;;;;;;;5120053;28;19923;-87
2022/05/27 15:39:23;;;;;;;;;;;;;;;;;;5118608;28;20264;-85
2022/05/27 15:41:48;;;;;;;;;;;;;;;;;;5118435;28;19915;-85
2022/05/27 15:44:14;;;;;;;;;;;;;;;;;;5119108;28;20305;-84
2022/05/27 15:46:40;;;;;;;;;;;;;;;;;;5118288;28;19920;-84
2022/05/27 15:49:06;;;;;;;;;;;;;;;;;;5118659;28;19920;-83
2022/05/27 15:51:31;;;;;;;;;;;;;;;;;;5119124;28;19955;-81
2022/05/27 15:53:56;;;;;;;;;;;;;;;;;;5119376;28;19916;-83
2022/05/27 15:56:22;;;;;;;;;;;;;;;;;;5119274;28;19938;-82
2022/05/27 15:58:47;;;;;;;;;;;;;;;;;;5117955;28;19916;-81
2022/05/27 16:01:12;;;;;;;;;;;;;;;;;;5118789;28;19915;-85
2022/05/27 16:03:38;;;;;;;;;;;;;;;;;;5119153;28;19916;-82
2022/05/27 16:06:04;;;;;;;;;;;;;;;;;;5117994;28;20006;-83
2022/05/27 16:08:29;;;;;;;;;;;;;;;;;;5117929;28;20241;-82
2022/05/27 16:10:55;;;;;;;;;;;;;;;;;;5117630;28;19954;-82
2022/05/27 16:13:20;;;;;;;;;;;;;;;;;;5118386;28;19958;-82
2022/05/27 16:17:50;;;;;;;;;;;;;;;;;;5119056;28;19919;-83
2022/05/27 16:18:31;;;;;;;;;;;;;;;;;;5118621;28;20006;-81
2022/05/27 16:20:56;;;;;;;;;;;;;;;;;;5119334;27;19947;-82
2022/05/27 16:23:22;;;;;;;;;;;;;;;;;;5119970;28;19938;-85
2022/05/27 16:25:47;;;;;;;;;;;;;;;;;;5119472;28;19938;-86
2022/05/27 16:28:12;;;;;;;;;;;;;;;;;;5123725;28;19916;-82
2022/05/27 16:30:38;;;;;;;;;;;;;;;;;;5119217;28;20253;-83
2022/05/27 16:33:04;;;;;;;;;;;;;;;;;;5118998;28;20329;-82
2022/05/27 16:35:29;;;;;;;;;;;;;;;;;;5117557;28;20003;-85
2022/05/27 16:37:55;;;;;;;;;;;;;;;;;;5117772;28;19947;-82
2022/05/27 16:40:20;;;;;;;;;;;;;;;;;;5118172;27;19994;-82
2022/05/27 16:42:46;;;;;;;;;;;;;;;;;;5118371;28;19919;-82
2022/05/27 16:45:12;;;;;;;;;;;;;;;;;;5117959;28;19915;-83
2022/05/27 16:47:38;;;;;;;;;;;;;;;;;;5117189;28;19920;-83
2022/05/27 16:50:03;;;;;;;;;;;;;;;;;;5118070;28;19978;-83
2022/05/27 16:52:29;;;;;;;;;;;;;;;;;;5118201;28;19938;-84
2022/05/27 16:54:54;;;;;;;;;;;;;;;;;;5117692;28;19980;-84
2022/05/27 16:57:20;;;;;;;;;;;;;;;;;;5118279;28;19915;-82
2022/05/27 16:59:45;;;;;;;;;;;;;;;;;;5118128;28;20357;-82
2022/05/27 17:02:11;;;;;;;;;;;;;;;;;;5118314;28;19920;-81
2022/05/27 17:04:37;;;;;;;;;;;;;;;;;;5117658;28;19972;-82
2022/05/27 17:07:02;;;;;;;;;;;;;;;;;;5117879;28;20244;-82
2022/05/27 17:09:28;;;;;;;;;;;;;;;;;;5117304;28;19915;-82
2022/05/27 17:11:53;;;;;;;;;;;;;;;;;;5117794;28;19915;-82
2022/05/27 17:14:18;;;;;;;;;;;;;;;;;;5116677;28;20068;-82
2022/05/27 17:16:44;;;;;;;;;;;;;;;;;;5117667;28;20336;-82
2022/05/27 17:19:09;;;;;;;;;;;;;;;;;;5116452;28;19916;-82
2022/05/27 17:21:35;;;;;;;;;;;;;;;;;;5116594;28;19922;-83
2022/05/27 17:24:00;;;;;;;;;;;;;;;;;;5117121;27;19915;-82
2022/05/27 17:26:25;;;;;;;;;;;;;;;;;;5117074;28;19915;-83
2022/05/27 17:28:51;;;;;;;;;;;;;;;;;;5117297;28;19916;-82
2022/05/27 17:31:16;;;;;;;;;;;;;;;;;;5117638;28;20380;-81
2022/05/27 17:33:42;;;;;;;;;;;;;;;;;;5117356;28;19916;-82
2022/05/27 17:36:07;;;;;;;;;;;;;;;;;;5117634;28;19972;-82
2022/05/27 17:38:33;;;;;;;;;;;;;;;;;;5099142;28;20313;-82
2022/05/27 17:40:58;;;;;;;;;;;;;;;;;;5117173;28;19916;-83